sensor_id;sensor_type;location;lat;lon;timestamp;P1;durP1;ratioP1;P2;durP2;ratioP2
50337;SDS011;46221;51.178;5.900;2024-03-06T00:00:01;4.03;;;2.53;;
50337;SDS011;46221;51.178;5.900;2024-03-06T00:02:29;3.38;;;2.33;;
50337;SDS011;46221;51.178;5.900;2024-03-06T00:04:55;3.50;;;2.67;;
50337;SDS011;46221;51.178;5.900;2024-03-06T00:07:22;4.78;;;2.85;;
50337;SDS011;46221;51.178;5.900;2024-03-06T00:09:48;3.80;;;2.70;;
50337;SDS011;46221;51.178;5.900;2024-03-06T00:12:14;4.18;;;2.58;;
50337;SDS011;46221;51.178;5.900;2024-03-06T00:14:41;4.05;;;2.60;;
50337;SDS011;46221;51.178;5.900;2024-03-06T00:17:07;3.60;;;2.20;;
50337;SDS011;46221;51.178;5.900;2024-03-06T00:19:35;5.70;;;2.75;;
50337;SDS011;46221;51.178;5.900;2024-03-06T00:22:02;5.20;;;2.92;;
50337;SDS011;46221;51.178;5.900;2024-03-06T00:24:29;3.42;;;2.40;;
50337;SDS011;46221;51.178;5.900;2024-03-06T00:26:55;4.68;;;2.53;;
50337;SDS011;46221;51.178;5.900;2024-03-06T00:29:21;4.25;;;2.75;;
50337;SDS011;46221;51.178;5.900;2024-03-06T00:31:48;3.72;;;2.38;;
50337;SDS011;46221;51.178;5.900;2024-03-06T00:34:15;3.45;;;2.10;;
50337;SDS011;46221;51.178;5.900;2024-03-06T00:36:45;4.03;;;2.25;;
50337;SDS011;46221;51.178;5.900;2024-03-06T00:39:11;4.05;;;2.40;;
50337;SDS011;46221;51.178;5.900;2024-03-06T00:41:40;5.68;;;2.47;;
50337;SDS011;46221;51.178;5.900;2024-03-06T00:44:08;3.45;;;2.42;;
50337;SDS011;46221;51.178;5.900;2024-03-06T00:46:34;4.15;;;2.47;;
50337;SDS011;46221;51.178;5.900;2024-03-06T00:49:01;4.88;;;2.83;;
50337;SDS011;46221;51.178;5.900;2024-03-06T00:51:27;3.90;;;2.67;;
50337;SDS011;46221;51.178;5.900;2024-03-06T00:54:09;4.22;;;2.47;;
50337;SDS011;46221;51.178;5.900;2024-03-06T00:56:38;3.45;;;2.33;;
50337;SDS011;46221;51.178;5.900;2024-03-06T00:59:05;3.42;;;2.58;;
50337;SDS011;46221;51.178;5.900;2024-03-06T01:01:32;3.63;;;2.42;;
50337;SDS011;46221;51.178;5.900;2024-03-06T01:03:58;2.85;;;2.30;;
50337;SDS011;46221;51.178;5.900;2024-03-06T01:06:25;3.83;;;2.50;;
50337;SDS011;46221;51.178;5.900;2024-03-06T01:08:51;5.43;;;2.90;;
50337;SDS011;46221;51.178;5.900;2024-03-06T01:11:17;3.40;;;2.42;;
50337;SDS011;46221;51.178;5.900;2024-03-06T01:13:44;4.03;;;2.70;;
50337;SDS011;46221;51.178;5.900;2024-03-06T01:16:10;3.72;;;2.50;;
50337;SDS011;46221;51.178;5.900;2024-03-06T01:18:36;3.60;;;2.50;;
50337;SDS011;46221;51.178;5.900;2024-03-06T01:21:03;2.85;;;2.03;;
50337;SDS011;46221;51.178;5.900;2024-03-06T01:23:29;3.15;;;2.38;;
50337;SDS011;46221;51.178;5.900;2024-03-06T01:25:56;3.80;;;2.80;;
50337;SDS011;46221;51.178;5.900;2024-03-06T01:28:22;3.20;;;2.10;;
50337;SDS011;46221;51.178;5.900;2024-03-06T01:30:49;3.08;;;2.20;;
50337;SDS011;46221;51.178;5.900;2024-03-06T01:33:15;3.25;;;2.30;;
50337;SDS011;46221;51.178;5.900;2024-03-06T01:35:42;3.42;;;2.30;;
50337;SDS011;46221;51.178;5.900;2024-03-06T01:38:08;3.60;;;2.25;;
50337;SDS011;46221;51.178;5.900;2024-03-06T01:40:36;3.60;;;2.47;;
50337;SDS011;46221;51.178;5.900;2024-03-06T01:43:06;4.03;;;2.53;;
50337;SDS011;46221;51.178;5.900;2024-03-06T01:45:32;3.55;;;2.30;;
50337;SDS011;46221;51.178;5.900;2024-03-06T01:47:58;4.18;;;2.33;;
50337;SDS011;46221;51.178;5.900;2024-03-06T01:50:25;4.78;;;2.47;;
50337;SDS011;46221;51.178;5.900;2024-03-06T01:52:52;3.53;;;2.50;;
50337;SDS011;46221;51.178;5.900;2024-03-06T01:55:18;3.88;;;2.50;;
50337;SDS011;46221;51.178;5.900;2024-03-06T01:57:45;3.85;;;2.42;;
50337;SDS011;46221;51.178;5.900;2024-03-06T02:00:11;4.03;;;2.45;;
50337;SDS011;46221;51.178;5.900;2024-03-06T02:02:41;3.85;;;2.80;;
50337;SDS011;46221;51.178;5.900;2024-03-06T02:05:08;3.60;;;2.45;;
50337;SDS011;46221;51.178;5.900;2024-03-06T02:07:34;3.13;;;2.30;;
50337;SDS011;46221;51.178;5.900;2024-03-06T02:10:02;5.07;;;2.45;;
50337;SDS011;46221;51.178;5.900;2024-03-06T02:12:30;3.70;;;2.25;;
50337;SDS011;46221;51.178;5.900;2024-03-06T02:14:57;3.50;;;2.47;;
50337;SDS011;46221;51.178;5.900;2024-03-06T02:17:23;5.25;;;3.08;;
50337;SDS011;46221;51.178;5.900;2024-03-06T02:19:51;2.90;;;2.20;;
50337;SDS011;46221;51.178;5.900;2024-03-06T02:22:18;3.20;;;2.45;;
50337;SDS011;46221;51.178;5.900;2024-03-06T02:24:45;3.13;;;2.15;;
50337;SDS011;46221;51.178;5.900;2024-03-06T02:27:11;2.92;;;2.15;;
50337;SDS011;46221;51.178;5.900;2024-03-06T02:29:38;3.30;;;2.45;;
50337;SDS011;46221;51.178;5.900;2024-03-06T02:32:04;3.42;;;2.20;;
50337;SDS011;46221;51.178;5.900;2024-03-06T02:34:31;4.72;;;2.70;;
50337;SDS011;46221;51.178;5.900;2024-03-06T02:36:58;3.83;;;2.47;;
50337;SDS011;46221;51.178;5.900;2024-03-06T02:39:24;2.92;;;2.13;;
50337;SDS011;46221;51.178;5.900;2024-03-06T02:41:50;3.40;;;2.05;;
50337;SDS011;46221;51.178;5.900;2024-03-06T02:44:17;3.38;;;2.30;;
50337;SDS011;46221;51.178;5.900;2024-03-06T02:46:50;3.83;;;2.30;;
50337;SDS011;46221;51.178;5.900;2024-03-06T02:49:16;5.35;;;2.33;;
50337;SDS011;46221;51.178;5.900;2024-03-06T02:51:43;3.42;;;2.30;;
50337;SDS011;46221;51.178;5.900;2024-03-06T02:54:10;2.97;;;2.10;;
50337;SDS011;46221;51.178;5.900;2024-03-06T02:56:36;3.50;;;2.25;;
50337;SDS011;46221;51.178;5.900;2024-03-06T02:59:02;3.42;;;2.17;;
50337;SDS011;46221;51.178;5.900;2024-03-06T03:01:32;3.45;;;1.98;;
50337;SDS011;46221;51.178;5.900;2024-03-06T03:03:59;2.60;;;1.90;;
50337;SDS011;46221;51.178;5.900;2024-03-06T03:06:25;3.25;;;2.10;;
50337;SDS011;46221;51.178;5.900;2024-03-06T03:08:52;2.50;;;1.90;;
50337;SDS011;46221;51.178;5.900;2024-03-06T03:11:18;4.43;;;2.35;;
50337;SDS011;46221;51.178;5.900;2024-03-06T03:13:45;3.97;;;2.05;;
50337;SDS011;46221;51.178;5.900;2024-03-06T03:16:17;3.83;;;2.30;;
50337;SDS011;46221;51.178;5.900;2024-03-06T03:18:44;3.22;;;2.10;;
50337;SDS011;46221;51.178;5.900;2024-03-06T03:21:11;4.55;;;2.30;;
50337;SDS011;46221;51.178;5.900;2024-03-06T03:23:39;3.42;;;2.30;;
50337;SDS011;46221;51.178;5.900;2024-03-06T03:26:06;3.45;;;2.30;;
50337;SDS011;46221;51.178;5.900;2024-03-06T03:28:32;3.15;;;2.20;;
50337;SDS011;46221;51.178;5.900;2024-03-06T03:30:59;3.20;;;2.00;;
50337;SDS011;46221;51.178;5.900;2024-03-06T03:33:25;2.88;;;2.10;;
50337;SDS011;46221;51.178;5.900;2024-03-06T03:35:51;3.38;;;2.08;;
50337;SDS011;46221;51.178;5.900;2024-03-06T03:38:18;2.30;;;1.70;;
50337;SDS011;46221;51.178;5.900;2024-03-06T03:40:45;3.17;;;2.05;;
50337;SDS011;46221;51.178;5.900;2024-03-06T03:43:11;3.00;;;2.13;;
50337;SDS011;46221;51.178;5.900;2024-03-06T03:45:37;3.17;;;1.92;;
50337;SDS011;46221;51.178;5.900;2024-03-06T03:48:04;2.85;;;1.95;;
50337;SDS011;46221;51.178;5.900;2024-03-06T03:50:31;2.78;;;1.90;;
50337;SDS011;46221;51.178;5.900;2024-03-06T03:52:59;3.10;;;2.08;;
50337;SDS011;46221;51.178;5.900;2024-03-06T03:55:27;3.50;;;1.92;;
50337;SDS011;46221;51.178;5.900;2024-03-06T03:57:54;3.20;;;2.03;;
50337;SDS011;46221;51.178;5.900;2024-03-06T04:00:20;3.42;;;2.22;;
50337;SDS011;46221;51.178;5.900;2024-03-06T04:02:49;2.88;;;1.77;;
50337;SDS011;46221;51.178;5.900;2024-03-06T04:05:16;3.42;;;2.33;;
50337;SDS011;46221;51.178;5.900;2024-03-06T04:07:43;3.25;;;2.20;;
50337;SDS011;46221;51.178;5.900;2024-03-06T04:10:10;2.72;;;1.70;;
50337;SDS011;46221;51.178;5.900;2024-03-06T04:12:38;2.60;;;1.92;;
50337;SDS011;46221;51.178;5.900;2024-03-06T04:15:05;2.72;;;1.90;;
50337;SDS011;46221;51.178;5.900;2024-03-06T04:17:31;3.08;;;1.92;;
50337;SDS011;46221;51.178;5.900;2024-03-06T04:19:58;3.50;;;1.92;;
50337;SDS011;46221;51.178;5.900;2024-03-06T04:22:24;2.55;;;1.80;;
50337;SDS011;46221;51.178;5.900;2024-03-06T04:24:51;2.78;;;1.92;;
50337;SDS011;46221;51.178;5.900;2024-03-06T04:27:17;2.97;;;1.73;;
50337;SDS011;46221;51.178;5.900;2024-03-06T04:29:44;2.35;;;1.58;;
50337;SDS011;46221;51.178;5.900;2024-03-06T04:32:10;3.75;;;1.98;;
50337;SDS011;46221;51.178;5.900;2024-03-06T04:34:37;2.58;;;1.80;;
50337;SDS011;46221;51.178;5.900;2024-03-06T04:37:03;2.83;;;2.00;;
50337;SDS011;46221;51.178;5.900;2024-03-06T04:39:30;3.15;;;1.90;;
50337;SDS011;46221;51.178;5.900;2024-03-06T04:41:58;3.05;;;1.98;;
50337;SDS011;46221;51.178;5.900;2024-03-06T04:44:24;3.00;;;1.77;;
50337;SDS011;46221;51.178;5.900;2024-03-06T04:46:51;2.60;;;1.80;;
50337;SDS011;46221;51.178;5.900;2024-03-06T04:49:17;3.72;;;1.88;;
50337;SDS011;46221;51.178;5.900;2024-03-06T04:51:44;2.63;;;1.60;;
50337;SDS011;46221;51.178;5.900;2024-03-06T04:54:10;2.33;;;1.52;;
50337;SDS011;46221;51.178;5.900;2024-03-06T04:56:36;3.30;;;1.92;;
50337;SDS011;46221;51.178;5.900;2024-03-06T04:59:03;2.53;;;1.65;;
50337;SDS011;46221;51.178;5.900;2024-03-06T05:01:30;2.67;;;1.75;;
50337;SDS011;46221;51.178;5.900;2024-03-06T05:03:56;3.15;;;1.98;;
50337;SDS011;46221;51.178;5.900;2024-03-06T05:06:41;2.15;;;1.40;;
50337;SDS011;46221;51.178;5.900;2024-03-06T05:09:25;2.97;;;1.50;;
50337;SDS011;46221;51.178;5.900;2024-03-06T05:12:08;3.25;;;1.85;;
50337;SDS011;46221;51.178;5.900;2024-03-06T05:14:53;2.75;;;1.60;;
50337;SDS011;46221;51.178;5.900;2024-03-06T05:17:37;3.75;;;1.77;;
50337;SDS011;46221;51.178;5.900;2024-03-06T05:20:21;2.95;;;1.40;;
50337;SDS011;46221;51.178;5.900;2024-03-06T05:23:05;2.78;;;1.73;;
50337;SDS011;46221;51.178;5.900;2024-03-06T05:25:49;2.40;;;1.60;;
50337;SDS011;46221;51.178;5.900;2024-03-06T05:28:33;2.95;;;1.60;;
50337;SDS011;46221;51.178;5.900;2024-03-06T05:31:18;3.30;;;1.60;;
50337;SDS011;46221;51.178;5.900;2024-03-06T05:34:06;2.95;;;1.63;;
50337;SDS011;46221;51.178;5.900;2024-03-06T05:36:50;2.30;;;1.63;;
50337;SDS011;46221;51.178;5.900;2024-03-06T05:39:34;2.97;;;1.77;;
50337;SDS011;46221;51.178;5.900;2024-03-06T05:42:19;3.58;;;1.83;;
50337;SDS011;46221;51.178;5.900;2024-03-06T05:45:03;4.13;;;1.67;;
50337;SDS011;46221;51.178;5.900;2024-03-06T05:47:53;2.97;;;1.50;;
50337;SDS011;46221;51.178;5.900;2024-03-06T05:50:37;3.83;;;1.80;;
50337;SDS011;46221;51.178;5.900;2024-03-06T05:53:22;3.53;;;1.70;;
50337;SDS011;46221;51.178;5.900;2024-03-06T05:56:07;3.13;;;1.80;;
50337;SDS011;46221;51.178;5.900;2024-03-06T05:58:51;3.08;;;1.50;;
50337;SDS011;46221;51.178;5.900;2024-03-06T06:01:17;3.67;;;1.67;;
50337;SDS011;46221;51.178;5.900;2024-03-06T06:03:47;3.35;;;1.70;;
50337;SDS011;46221;51.178;5.900;2024-03-06T06:06:17;2.58;;;1.60;;
50337;SDS011;46221;51.178;5.900;2024-03-06T06:08:45;2.72;;;1.83;;
50337;SDS011;46221;51.178;5.900;2024-03-06T06:11:12;3.38;;;1.50;;
50337;SDS011;46221;51.178;5.900;2024-03-06T06:13:38;2.20;;;1.40;;
50337;SDS011;46221;51.178;5.900;2024-03-06T06:16:05;2.42;;;1.65;;
50337;SDS011;46221;51.178;5.900;2024-03-06T06:18:32;3.50;;;1.48;;
50337;SDS011;46221;51.178;5.900;2024-03-06T06:20:59;3.35;;;1.80;;
50337;SDS011;46221;51.178;5.900;2024-03-06T06:23:26;5.38;;;1.90;;
50337;SDS011;46221;51.178;5.900;2024-03-06T06:25:53;5.50;;;1.60;;
50337;SDS011;46221;51.178;5.900;2024-03-06T06:28:19;2.58;;;1.55;;
50337;SDS011;46221;51.178;5.900;2024-03-06T06:30:46;3.00;;;1.60;;
50337;SDS011;46221;51.178;5.900;2024-03-06T06:33:12;2.35;;;1.40;;
50337;SDS011;46221;51.178;5.900;2024-03-06T06:35:42;3.65;;;1.60;;
50337;SDS011;46221;51.178;5.900;2024-03-06T06:38:12;2.58;;;1.60;;
50337;SDS011;46221;51.178;5.900;2024-03-06T06:40:38;3.05;;;1.63;;
50337;SDS011;46221;51.178;5.900;2024-03-06T06:43:07;3.20;;;1.67;;
50337;SDS011;46221;51.178;5.900;2024-03-06T06:45:33;2.22;;;1.52;;
50337;SDS011;46221;51.178;5.900;2024-03-06T06:48:00;3.10;;;1.55;;
50337;SDS011;46221;51.178;5.900;2024-03-06T06:50:26;2.90;;;1.23;;
50337;SDS011;46221;51.178;5.900;2024-03-06T06:52:53;3.15;;;1.50;;
50337;SDS011;46221;51.178;5.900;2024-03-06T06:55:20;3.35;;;1.48;;
50337;SDS011;46221;51.178;5.900;2024-03-06T06:57:49;3.88;;;1.50;;
50337;SDS011;46221;51.178;5.900;2024-03-06T07:00:16;2.50;;;1.48;;
50337;SDS011;46221;51.178;5.900;2024-03-06T07:02:45;2.20;;;1.35;;
50337;SDS011;46221;51.178;5.900;2024-03-06T07:05:12;2.47;;;1.38;;
50337;SDS011;46221;51.178;5.900;2024-03-06T07:07:39;2.00;;;1.35;;
50337;SDS011;46221;51.178;5.900;2024-03-06T07:10:06;1.98;;;1.33;;
50337;SDS011;46221;51.178;5.900;2024-03-06T07:12:33;2.40;;;1.40;;
50337;SDS011;46221;51.178;5.900;2024-03-06T07:14:59;4.63;;;1.70;;
50337;SDS011;46221;51.178;5.900;2024-03-06T07:17:26;2.17;;;1.10;;
50337;SDS011;46221;51.178;5.900;2024-03-06T07:19:52;2.45;;;1.20;;
50337;SDS011;46221;51.178;5.900;2024-03-06T07:22:19;2.67;;;1.48;;
50337;SDS011;46221;51.178;5.900;2024-03-06T07:24:45;2.22;;;1.40;;
50337;SDS011;46221;51.178;5.900;2024-03-06T07:27:11;4.05;;;1.50;;
50337;SDS011;46221;51.178;5.900;2024-03-06T07:29:38;4.00;;;1.55;;
50337;SDS011;46221;51.178;5.900;2024-03-06T07:32:04;3.63;;;1.73;;
50337;SDS011;46221;51.178;5.900;2024-03-06T07:34:34;2.28;;;1.40;;
50337;SDS011;46221;51.178;5.900;2024-03-06T07:37:00;2.72;;;1.67;;
50337;SDS011;46221;51.178;5.900;2024-03-06T07:39:31;2.45;;;1.20;;
50337;SDS011;46221;51.178;5.900;2024-03-06T07:42:01;2.45;;;1.42;;
50337;SDS011;46221;51.178;5.900;2024-03-06T07:44:28;2.63;;;1.40;;
50337;SDS011;46221;51.178;5.900;2024-03-06T07:46:55;2.35;;;1.10;;
50337;SDS011;46221;51.178;5.900;2024-03-06T07:49:21;2.80;;;1.40;;
50337;SDS011;46221;51.178;5.900;2024-03-06T07:51:48;4.10;;;1.70;;
50337;SDS011;46221;51.178;5.900;2024-03-06T07:54:14;2.20;;;1.17;;
50337;SDS011;46221;51.178;5.900;2024-03-06T07:56:41;2.03;;;1.33;;
50337;SDS011;46221;51.178;5.900;2024-03-06T07:59:07;2.45;;;1.40;;
50337;SDS011;46221;51.178;5.900;2024-03-06T08:01:35;2.72;;;1.50;;
50337;SDS011;46221;51.178;5.900;2024-03-06T08:04:01;3.50;;;1.30;;
50337;SDS011;46221;51.178;5.900;2024-03-06T08:06:29;2.67;;;1.42;;
50337;SDS011;46221;51.178;5.900;2024-03-06T08:08:55;2.92;;;1.30;;
50337;SDS011;46221;51.178;5.900;2024-03-06T08:11:24;2.83;;;1.30;;
50337;SDS011;46221;51.178;5.900;2024-03-06T08:13:56;2.78;;;1.30;;
50337;SDS011;46221;51.178;5.900;2024-03-06T08:16:23;2.25;;;1.20;;
50337;SDS011;46221;51.178;5.900;2024-03-06T08:18:49;2.40;;;1.33;;
50337;SDS011;46221;51.178;5.900;2024-03-06T08:21:16;2.72;;;1.08;;
50337;SDS011;46221;51.178;5.900;2024-03-06T08:23:42;3.90;;;1.30;;
50337;SDS011;46221;51.178;5.900;2024-03-06T08:26:11;2.28;;;1.38;;
50337;SDS011;46221;51.178;5.900;2024-03-06T08:28:37;2.70;;;1.25;;
50337;SDS011;46221;51.178;5.900;2024-03-06T08:31:04;2.63;;;1.45;;
50337;SDS011;46221;51.178;5.900;2024-03-06T08:33:30;3.00;;;1.55;;
50337;SDS011;46221;51.178;5.900;2024-03-06T08:35:57;2.38;;;1.17;;
50337;SDS011;46221;51.178;5.900;2024-03-06T08:38:27;3.33;;;1.30;;
50337;SDS011;46221;51.178;5.900;2024-03-06T08:40:54;2.30;;;1.27;;
50337;SDS011;46221;51.178;5.900;2024-03-06T08:43:20;3.05;;;1.50;;
50337;SDS011;46221;51.178;5.900;2024-03-06T08:45:47;3.67;;;1.58;;
50337;SDS011;46221;51.178;5.900;2024-03-06T08:48:14;4.72;;;1.77;;
50337;SDS011;46221;51.178;5.900;2024-03-06T08:50:40;2.53;;;1.40;;
50337;SDS011;46221;51.178;5.900;2024-03-06T08:53:07;3.42;;;1.50;;
50337;SDS011;46221;51.178;5.900;2024-03-06T08:55:37;2.90;;;1.55;;
50337;SDS011;46221;51.178;5.900;2024-03-06T08:58:04;3.28;;;1.70;;
50337;SDS011;46221;51.178;5.900;2024-03-06T09:00:31;4.05;;;1.50;;
50337;SDS011;46221;51.178;5.900;2024-03-06T09:02:58;2.40;;;1.40;;
50337;SDS011;46221;51.178;5.900;2024-03-06T09:05:25;3.47;;;1.52;;
50337;SDS011;46221;51.178;5.900;2024-03-06T09:07:52;3.63;;;1.70;;
50337;SDS011;46221;51.178;5.900;2024-03-06T09:10:19;3.35;;;1.50;;
50337;SDS011;46221;51.178;5.900;2024-03-06T09:12:45;3.80;;;1.70;;
50337;SDS011;46221;51.178;5.900;2024-03-06T09:15:12;2.70;;;1.50;;
50337;SDS011;46221;51.178;5.900;2024-03-06T09:17:40;4.05;;;1.55;;
50337;SDS011;46221;51.178;5.900;2024-03-06T09:20:08;4.32;;;1.75;;
50337;SDS011;46221;51.178;5.900;2024-03-06T09:22:40;3.50;;;1.73;;
50337;SDS011;46221;51.178;5.900;2024-03-06T09:25:06;2.55;;;1.60;;
50337;SDS011;46221;51.178;5.900;2024-03-06T09:27:33;5.72;;;1.80;;
50337;SDS011;46221;51.178;5.900;2024-03-06T09:30:00;3.60;;;1.90;;
50337;SDS011;46221;51.178;5.900;2024-03-06T09:32:27;2.53;;;1.55;;
50337;SDS011;46221;51.178;5.900;2024-03-06T09:34:53;6.18;;;2.40;;
50337;SDS011;46221;51.178;5.900;2024-03-06T09:37:20;4.28;;;1.92;;
50337;SDS011;46221;51.178;5.900;2024-03-06T09:39:46;4.32;;;2.17;;
50337;SDS011;46221;51.178;5.900;2024-03-06T09:42:14;3.50;;;1.92;;
50337;SDS011;46221;51.178;5.900;2024-03-06T09:44:40;3.97;;;2.00;;
50337;SDS011;46221;51.178;5.900;2024-03-06T09:47:07;6.70;;;2.53;;
50337;SDS011;46221;51.178;5.900;2024-03-06T09:49:36;5.68;;;2.45;;
50337;SDS011;46221;51.178;5.900;2024-03-06T09:52:03;6.68;;;2.97;;
50337;SDS011;46221;51.178;5.900;2024-03-06T09:54:31;7.88;;;2.72;;
50337;SDS011;46221;51.178;5.900;2024-03-06T09:56:57;5.25;;;2.65;;
50337;SDS011;46221;51.178;5.900;2024-03-06T09:59:25;5.85;;;2.80;;
50337;SDS011;46221;51.178;5.900;2024-03-06T10:01:55;9.48;;;3.78;;
50337;SDS011;46221;51.178;5.900;2024-03-06T10:04:25;6.00;;;3.35;;
50337;SDS011;46221;51.178;5.900;2024-03-06T10:06:56;7.53;;;3.15;;
50337;SDS011;46221;51.178;5.900;2024-03-06T10:09:22;7.68;;;3.30;;
50337;SDS011;46221;51.178;5.900;2024-03-06T10:11:49;8.23;;;3.38;;
50337;SDS011;46221;51.178;5.900;2024-03-06T10:14:16;11.27;;;4.88;;
50337;SDS011;46221;51.178;5.900;2024-03-06T10:19:23;8.32;;;3.72;;
50337;SDS011;46221;51.178;5.900;2024-03-06T10:21:50;8.40;;;3.88;;
50337;SDS011;46221;51.178;5.900;2024-03-06T10:24:18;7.10;;;3.63;;
50337;SDS011;46221;51.178;5.900;2024-03-06T10:26:45;7.13;;;3.97;;
50337;SDS011;46221;51.178;5.900;2024-03-06T10:29:14;8.90;;;3.95;;
50337;SDS011;46221;51.178;5.900;2024-03-06T10:31:41;7.97;;;4.00;;
50337;SDS011;46221;51.178;5.900;2024-03-06T10:34:08;7.05;;;3.20;;
50337;SDS011;46221;51.178;5.900;2024-03-06T10:36:37;10.73;;;4.43;;
50337;SDS011;46221;51.178;5.900;2024-03-06T10:39:03;8.80;;;4.55;;
50337;SDS011;46221;51.178;5.900;2024-03-06T10:41:30;8.82;;;4.13;;
50337;SDS011;46221;51.178;5.900;2024-03-06T10:43:59;8.32;;;4.47;;
50337;SDS011;46221;51.178;5.900;2024-03-06T10:46:25;6.80;;;3.67;;
50337;SDS011;46221;51.178;5.900;2024-03-06T10:48:53;8.18;;;3.58;;
50337;SDS011;46221;51.178;5.900;2024-03-06T10:51:20;8.70;;;4.43;;
50337;SDS011;46221;51.178;5.900;2024-03-06T10:53:47;7.78;;;4.18;;
50337;SDS011;46221;51.178;5.900;2024-03-06T10:56:15;8.00;;;3.78;;
50337;SDS011;46221;51.178;5.900;2024-03-06T10:58:42;7.78;;;4.13;;
50337;SDS011;46221;51.178;5.900;2024-03-06T11:01:10;7.47;;;3.78;;
50337;SDS011;46221;51.178;5.900;2024-03-06T11:03:38;7.90;;;4.05;;
50337;SDS011;46221;51.178;5.900;2024-03-06T11:06:05;6.38;;;3.53;;
50337;SDS011;46221;51.178;5.900;2024-03-06T11:08:32;7.10;;;3.70;;
50337;SDS011;46221;51.178;5.900;2024-03-06T11:11:18;7.57;;;3.50;;
50337;SDS011;46221;51.178;5.900;2024-03-06T11:13:45;9.23;;;4.10;;
50337;SDS011;46221;51.178;5.900;2024-03-06T11:16:11;10.45;;;5.05;;
50337;SDS011;46221;51.178;5.900;2024-03-06T11:23:34;8.75;;;4.50;;
50337;SDS011;46221;51.178;5.900;2024-03-06T11:28:31;7.40;;;4.25;;
50337;SDS011;46221;51.178;5.900;2024-03-06T11:33:37;8.18;;;4.07;;
50337;SDS011;46221;51.178;5.900;2024-03-06T11:36:12;8.13;;;4.55;;
50337;SDS011;46221;51.178;5.900;2024-03-06T11:38:47;11.10;;;4.43;;
50337;SDS011;46221;51.178;5.900;2024-03-06T11:41:14;8.77;;;4.53;;
50337;SDS011;46221;51.178;5.900;2024-03-06T11:43:43;9.13;;;4.45;;
50337;SDS011;46221;51.178;5.900;2024-03-06T11:46:11;8.65;;;4.78;;
50337;SDS011;46221;51.178;5.900;2024-03-06T11:48:37;8.65;;;4.50;;
50337;SDS011;46221;51.178;5.900;2024-03-06T11:51:05;8.52;;;4.45;;
50337;SDS011;46221;51.178;5.900;2024-03-06T11:53:35;10.07;;;4.57;;
50337;SDS011;46221;51.178;5.900;2024-03-06T11:56:05;8.38;;;4.60;;
50337;SDS011;46221;51.178;5.900;2024-03-06T11:58:34;9.15;;;4.05;;
50337;SDS011;46221;51.178;5.900;2024-03-06T12:01:01;9.95;;;5.15;;
50337;SDS011;46221;51.178;5.900;2024-03-06T12:03:27;7.13;;;4.30;;
50337;SDS011;46221;51.178;5.900;2024-03-06T12:05:54;8.95;;;4.53;;
50337;SDS011;46221;51.178;5.900;2024-03-06T12:08:21;9.52;;;4.43;;
50337;SDS011;46221;51.178;5.900;2024-03-06T12:10:52;7.35;;;5.07;;
50337;SDS011;46221;51.178;5.900;2024-03-06T12:13:21;7.60;;;4.35;;
50337;SDS011;46221;51.178;5.900;2024-03-06T12:15:48;8.32;;;5.15;;
50337;SDS011;46221;51.178;5.900;2024-03-06T12:18:16;8.80;;;5.20;;
50337;SDS011;46221;51.178;5.900;2024-03-06T12:20:43;8.95;;;4.80;;
50337;SDS011;46221;51.178;5.900;2024-03-06T12:23:19;7.60;;;4.68;;
50337;SDS011;46221;51.178;5.900;2024-03-06T12:25:45;6.10;;;3.90;;
50337;SDS011;46221;51.178;5.900;2024-03-06T12:28:27;7.40;;;3.85;;
50337;SDS011;46221;51.178;5.900;2024-03-06T12:30:53;7.63;;;4.13;;
50337;SDS011;46221;51.178;5.900;2024-03-06T12:33:20;6.10;;;3.90;;
50337;SDS011;46221;51.178;5.900;2024-03-06T12:35:46;6.70;;;3.92;;
50337;SDS011;46221;51.178;5.900;2024-03-06T12:38:14;7.55;;;3.83;;
50337;SDS011;46221;51.178;5.900;2024-03-06T12:40:41;6.07;;;3.42;;
50337;SDS011;46221;51.178;5.900;2024-03-06T12:43:08;6.47;;;4.05;;
50337;SDS011;46221;51.178;5.900;2024-03-06T12:45:35;6.85;;;3.45;;
50337;SDS011;46221;51.178;5.900;2024-03-06T12:48:02;5.57;;;3.60;;
50337;SDS011;46221;51.178;5.900;2024-03-06T12:50:29;6.10;;;3.30;;
50337;SDS011;46221;51.178;5.900;2024-03-06T12:52:55;6.28;;;3.08;;
50337;SDS011;46221;51.178;5.900;2024-03-06T12:55:22;7.03;;;3.47;;
50337;SDS011;46221;51.178;5.900;2024-03-06T12:57:49;5.93;;;3.40;;
50337;SDS011;46221;51.178;5.900;2024-03-06T13:00:16;6.05;;;3.40;;
50337;SDS011;46221;51.178;5.900;2024-03-06T13:02:43;4.45;;;2.88;;
50337;SDS011;46221;51.178;5.900;2024-03-06T13:05:10;5.78;;;2.85;;
50337;SDS011;46221;51.178;5.900;2024-03-06T13:07:37;6.05;;;2.58;;
50337;SDS011;46221;51.178;5.900;2024-03-06T13:10:04;4.72;;;2.58;;
50337;SDS011;46221;51.178;5.900;2024-03-06T13:12:31;5.30;;;2.60;;
50337;SDS011;46221;51.178;5.900;2024-03-06T13:14:58;5.47;;;2.90;;
50337;SDS011;46221;51.178;5.900;2024-03-06T13:17:24;4.82;;;2.70;;
50337;SDS011;46221;51.178;5.900;2024-03-06T13:19:51;5.30;;;2.42;;
50337;SDS011;46221;51.178;5.900;2024-03-06T13:22:18;5.32;;;2.17;;
50337;SDS011;46221;51.178;5.900;2024-03-06T13:24:46;5.00;;;2.70;;
50337;SDS011;46221;51.178;5.900;2024-03-06T13:27:16;5.28;;;2.53;;
50337;SDS011;46221;51.178;5.900;2024-03-06T13:29:43;4.72;;;2.50;;
50337;SDS011;46221;51.178;5.900;2024-03-06T13:32:09;4.05;;;2.05;;
50337;SDS011;46221;51.178;5.900;2024-03-06T13:34:39;4.35;;;2.22;;
50337;SDS011;46221;51.178;5.900;2024-03-06T13:37:05;5.32;;;2.53;;
50337;SDS011;46221;51.178;5.900;2024-03-06T13:39:36;4.07;;;2.53;;
50337;SDS011;46221;51.178;5.900;2024-03-06T13:42:06;5.60;;;2.20;;
50337;SDS011;46221;51.178;5.900;2024-03-06T13:44:37;5.90;;;2.47;;
50337;SDS011;46221;51.178;5.900;2024-03-06T13:47:03;6.25;;;2.38;;
50337;SDS011;46221;51.178;5.900;2024-03-06T13:49:37;5.03;;;2.20;;
50337;SDS011;46221;51.178;5.900;2024-03-06T13:52:04;4.45;;;2.08;;
50337;SDS011;46221;51.178;5.900;2024-03-06T13:54:31;5.60;;;2.72;;
50337;SDS011;46221;51.178;5.900;2024-03-06T13:56:58;5.43;;;2.25;;
50337;SDS011;46221;51.178;5.900;2024-03-06T13:59:29;3.95;;;2.17;;
50337;SDS011;46221;51.178;5.900;2024-03-06T14:01:57;4.03;;;2.25;;
50337;SDS011;46221;51.178;5.900;2024-03-06T14:04:25;5.40;;;2.72;;
50337;SDS011;46221;51.178;5.900;2024-03-06T14:06:54;5.50;;;2.42;;
50337;SDS011;46221;51.178;5.900;2024-03-06T14:09:20;4.85;;;2.47;;
50337;SDS011;46221;51.178;5.900;2024-03-06T14:11:50;4.22;;;2.65;;
50337;SDS011;46221;51.178;5.900;2024-03-06T14:14:17;5.32;;;2.20;;
50337;SDS011;46221;51.178;5.900;2024-03-06T14:16:44;5.00;;;2.22;;
50337;SDS011;46221;51.178;5.900;2024-03-06T14:19:11;4.20;;;1.92;;
50337;SDS011;46221;51.178;5.900;2024-03-06T14:21:38;3.28;;;2.08;;
50337;SDS011;46221;51.178;5.900;2024-03-06T14:24:04;3.95;;;2.00;;
50337;SDS011;46221;51.178;5.900;2024-03-06T14:26:35;5.30;;;2.67;;
50337;SDS011;46221;51.178;5.900;2024-03-06T14:29:02;5.57;;;2.15;;
50337;SDS011;46221;51.178;5.900;2024-03-06T14:31:29;5.07;;;2.15;;
50337;SDS011;46221;51.178;5.900;2024-03-06T14:33:56;4.13;;;2.10;;
50337;SDS011;46221;51.178;5.900;2024-03-06T14:36:22;5.97;;;2.30;;
50337;SDS011;46221;51.178;5.900;2024-03-06T14:38:51;5.55;;;2.45;;
50337;SDS011;46221;51.178;5.900;2024-03-06T14:41:20;4.93;;;2.30;;
50337;SDS011;46221;51.178;5.900;2024-03-06T14:43:47;4.95;;;2.03;;
50337;SDS011;46221;51.178;5.900;2024-03-06T14:46:13;4.65;;;2.25;;
50337;SDS011;46221;51.178;5.900;2024-03-06T14:48:40;3.15;;;1.83;;
50337;SDS011;46221;51.178;5.900;2024-03-06T14:51:07;3.92;;;2.00;;
50337;SDS011;46221;51.178;5.900;2024-03-06T14:53:33;5.10;;;2.55;;
50337;SDS011;46221;51.178;5.900;2024-03-06T14:56:00;4.00;;;1.92;;
50337;SDS011;46221;51.178;5.900;2024-03-06T14:58:26;4.05;;;2.20;;
50337;SDS011;46221;51.178;5.900;2024-03-06T15:00:52;4.20;;;2.10;;
50337;SDS011;46221;51.178;5.900;2024-03-06T15:03:19;3.20;;;1.90;;
50337;SDS011;46221;51.178;5.900;2024-03-06T15:05:45;5.40;;;2.30;;